Grizzly Flats, California
Current Conditions -  °F | °C
As of 10:15 PM on Wednesday 28 Jan 2015 (Local Time) from KPVF Reporting Station
NA  
Wind Chill: 54°   Ceiling: NA
Heat Index: 54°   Visibility: 10mi
Dew Point: 39°   Wind: 3mph
Humidity: 58%   Direction: 110°ESE
Pressure: 30.2"   Gusts: NA
Location:  38.63°N, 120.55°W
Report Text: KPVF 290615Z AUTO 11003KT 10SM 12/04 A3020 RMK AO1
Loading
Personal Weather Stations






























Interactive Weather Map New forecast layout! Learn more

10-Day Weather Forecast

Advertisements
Track Severe Weather on mobile